sensor_id;sensor_type;location;lat;lon;timestamp;pressure;altitude;pressure_sealevel;temperature;humidity
1776;BME280;885;42.626;23.200;2022-08-14T00:00:44;169638.06;;;16.44;100.00
1776;BME280;885;42.626;23.200;2022-08-14T00:03:17;169643.59;;;16.46;100.00
1776;BME280;885;42.626;23.200;2022-08-14T00:05:46;169614.50;;;16.35;100.00
1776;BME280;885;42.626;23.200;2022-08-14T00:08:13;169638.06;;;16.44;100.00
1776;BME280;885;42.626;23.200;2022-08-14T00:10:40;169646.34;;;16.47;100.00
1776;BME280;885;42.626;23.200;2022-08-14T00:13:08;169663.00;;;16.53;100.00
1776;BME280;885;42.626;23.200;2022-08-14T00:15:38;169657.47;;;16.51;100.00
1776;BME280;885;42.626;23.200;2022-08-14T00:18:07;169649.13;;;16.48;100.00
1776;BME280;885;42.626;23.200;2022-08-14T00:20:36;169658.88;;;16.51;100.00
1776;BME280;885;42.626;23.200;2022-08-14T00:23:06;169669.94;;;16.55;100.00
1776;BME280;885;42.626;23.200;2022-08-14T00:25:33;169658.88;;;16.51;100.00
1776;BME280;885;42.626;23.200;2022-08-14T00:28:00;169658.88;;;16.51;100.00
1776;BME280;885;42.626;23.200;2022-08-14T00:30:27;169660.25;;;16.52;100.00
1776;BME280;885;42.626;23.200;2022-08-14T00:32:54;169668.53;;;16.55;100.00
1776;BME280;885;42.626;23.200;2022-08-14T00:35:21;169657.47;;;16.51;100.00
1776;BME280;885;42.626;23.200;2022-08-14T00:37:48;169665.81;;;16.54;100.00
1776;BME280;885;42.626;23.200;2022-08-14T00:40:19;169656.13;;;16.50;100.00
1776;BME280;885;42.626;23.200;2022-08-14T00:42:47;169635.25;;;16.43;100.00
1776;BME280;885;42.626;23.200;2022-08-14T00:45:15;169603.44;;;16.31;100.00
1776;BME280;885;42.626;23.200;2022-08-14T00:47:44;169608.97;;;16.33;100.00
1776;BME280;885;42.626;23.200;2022-08-14T00:50:13;169585.41;;;16.25;100.00
1776;BME280;885;42.626;23.200;2022-08-14T00:52:42;169556.34;;;16.14;100.00
1776;BME280;885;42.626;23.200;2022-08-14T00:55:10;169574.34;;;16.21;100.00
1776;BME280;885;42.626;23.200;2022-08-14T00:57:39;169607.56;;;16.33;100.00
1776;BME280;885;42.626;23.200;2022-08-14T01:00:09;169631.13;;;16.41;100.00
1776;BME280;885;42.626;23.200;2022-08-14T01:02:37;169643.59;;;16.46;100.00
1776;BME280;885;42.626;23.200;2022-08-14T01:05:22;169667.19;;;16.54;100.00
1776;BME280;885;42.626;23.200;2022-08-14T01:11:12;169632.53;;;16.42;100.00
1776;BME280;885;42.626;23.200;2022-08-14T01:13:46;169635.25;;;16.43;100.00
1776;BME280;885;42.626;23.200;2022-08-14T01:16:17;169646.34;;;16.47;100.00
1776;BME280;885;42.626;23.200;2022-08-14T01:18:45;169635.25;;;16.43;100.00
1776;BME280;885;42.626;23.200;2022-08-14T01:21:32;169563.28;;;16.17;100.00
1776;BME280;885;42.626;23.200;2022-08-14T01:24:00;169502.31;;;15.95;100.00
1776;BME280;885;42.626;23.200;2022-08-14T01:26:27;169549.41;;;16.12;100.00
1776;BME280;885;42.626;23.200;2022-08-14T01:28:56;169592.34;;;16.27;100.00
1776;BME280;885;42.626;23.200;2022-08-14T01:31:27;169596.50;;;16.29;100.00
1776;BME280;885;42.626;23.200;2022-08-14T01:33:56;169595.09;;;16.28;100.00
1776;BME280;885;42.626;23.200;2022-08-14T01:36:24;169582.63;;;16.24;100.00
1776;BME280;885;42.626;23.200;2022-08-14T01:38:54;169545.25;;;16.10;100.00
1776;BME280;885;42.626;23.200;2022-08-14T01:41:23;169545.25;;;16.10;100.00
1776;BME280;885;42.626;23.200;2022-08-14T01:43:53;169552.19;;;16.13;100.00
1776;BME280;885;42.626;23.200;2022-08-14T01:46:21;169566.00;;;16.18;100.00
1776;BME280;885;42.626;23.200;2022-08-14T01:48:50;169525.84;;;16.03;100.00
1776;BME280;885;42.626;23.200;2022-08-14T01:51:20;169506.44;;;15.96;100.00
1776;BME280;885;42.626;23.200;2022-08-14T01:53:49;169502.31;;;15.95;100.00
1776;BME280;885;42.626;23.200;2022-08-14T01:56:21;169488.50;;;15.89;100.00
1776;BME280;885;42.626;23.200;2022-08-14T01:58:54;169467.69;;;15.82;100.00
1776;BME280;885;42.626;23.200;2022-08-14T02:01:21;169469.09;;;15.82;100.00
1776;BME280;885;42.626;23.200;2022-08-14T02:03:48;169433.09;;;15.69;100.00
1776;BME280;885;42.626;23.200;2022-08-14T02:06:15;169427.56;;;15.67;100.00
1776;BME280;885;42.626;23.200;2022-08-14T02:08:41;169383.28;;;15.51;100.00
1776;BME280;885;42.626;23.200;2022-08-14T02:11:10;169372.19;;;15.47;100.00
1776;BME280;885;42.626;23.200;2022-08-14T02:13:45;169394.34;;;15.55;100.00
1776;BME280;885;42.626;23.200;2022-08-14T02:16:16;169398.47;;;15.57;100.00
1776;BME280;885;42.626;23.200;2022-08-14T02:18:43;169377.75;;;15.49;100.00
1776;BME280;885;42.626;23.200;2022-08-14T02:21:10;169369.41;;;15.46;100.00
1776;BME280;885;42.626;23.200;2022-08-14T02:23:39;169363.88;;;15.44;100.00
1776;BME280;885;42.626;23.200;2022-08-14T02:26:15;169362.47;;;15.44;100.00
1776;BME280;885;42.626;23.200;2022-08-14T02:28:42;169366.66;;;15.45;100.00
1776;BME280;885;42.626;23.200;2022-08-14T02:31:11;169358.28;;;15.42;100.00
1776;BME280;885;42.626;23.200;2022-08-14T02:33:41;169347.22;;;15.38;100.00
1776;BME280;885;42.626;23.200;2022-08-14T02:36:09;169358.28;;;15.42;100.00
1776;BME280;885;42.626;23.200;2022-08-14T02:38:42;169359.75;;;15.43;100.00
1776;BME280;885;42.626;23.200;2022-08-14T02:41:11;169361.13;;;15.43;100.00
1776;BME280;885;42.626;23.200;2022-08-14T02:43:39;169365.28;;;15.45;100.00
1776;BME280;885;42.626;23.200;2022-08-14T02:46:08;169366.66;;;15.45;100.00
1776;BME280;885;42.626;23.200;2022-08-14T02:48:39;169387.41;;;15.53;100.00
1776;BME280;885;42.626;23.200;2022-08-14T02:51:08;169409.53;;;15.61;100.00
1776;BME280;885;42.626;23.200;2022-08-14T02:53:37;169416.47;;;15.63;100.00
1776;BME280;885;42.626;23.200;2022-08-14T02:56:08;169399.88;;;15.57;100.00
1776;BME280;885;42.626;23.200;2022-08-14T02:58:37;169377.75;;;15.49;100.00
1776;BME280;885;42.626;23.200;2022-08-14T03:01:05;169379.13;;;15.50;100.00
1776;BME280;885;42.626;23.200;2022-08-14T03:03:32;169376.34;;;15.49;100.00
1776;BME280;885;42.626;23.200;2022-08-14T03:06:03;169376.34;;;15.49;100.00
1776;BME280;885;42.626;23.200;2022-08-14T03:08:31;169386.00;;;15.52;100.00
1776;BME280;885;42.626;23.200;2022-08-14T03:10:59;169412.34;;;15.62;100.00
1776;BME280;885;42.626;23.200;2022-08-14T03:13:26;169409.53;;;15.61;100.00
1776;BME280;885;42.626;23.200;2022-08-14T03:15:53;169420.63;;;15.65;100.00
1776;BME280;885;42.626;23.200;2022-08-14T03:18:20;169355.53;;;15.41;100.00
1776;BME280;885;42.626;23.200;2022-08-14T03:20:49;169372.19;;;15.47;100.00
1776;BME280;885;42.626;23.200;2022-08-14T03:23:17;169369.41;;;15.46;100.00
1776;BME280;885;42.626;23.200;2022-08-14T03:25:45;169379.13;;;15.50;100.00
1776;BME280;885;42.626;23.200;2022-08-14T03:28:13;169380.47;;;15.50;100.00
1776;BME280;885;42.626;23.200;2022-08-14T03:30:40;169341.69;;;15.36;100.00
1776;BME280;885;42.626;23.200;2022-08-14T03:33:10;169392.94;;;15.55;100.00
1776;BME280;885;42.626;23.200;2022-08-14T03:35:39;169402.63;;;15.58;100.00
1776;BME280;885;42.626;23.200;2022-08-14T03:38:07;169435.88;;;15.70;100.00
1776;BME280;885;42.626;23.200;2022-08-14T03:40:36;169428.94;;;15.68;100.00
1776;BME280;885;42.626;23.200;2022-08-14T03:43:04;169433.09;;;15.69;100.00
1776;BME280;885;42.626;23.200;2022-08-14T03:45:31;169422.00;;;15.65;100.00
1776;BME280;885;42.626;23.200;2022-08-14T03:48:00;169427.56;;;15.67;100.00
1776;BME280;885;42.626;23.200;2022-08-14T03:50:29;169424.81;;;15.66;100.00
1776;BME280;885;42.626;23.200;2022-08-14T03:52:57;169419.28;;;15.64;100.00
1776;BME280;885;42.626;23.200;2022-08-14T03:55:25;169416.47;;;15.63;100.00
1776;BME280;885;42.626;23.200;2022-08-14T03:57:54;169434.47;;;15.70;100.00
1776;BME280;885;42.626;23.200;2022-08-14T04:00:21;169449.69;;;15.75;100.00
1776;BME280;885;42.626;23.200;2022-08-14T04:02:48;169466.28;;;15.81;100.00
1776;BME280;885;42.626;23.200;2022-08-14T04:05:15;169464.97;;;15.81;100.00
1776;BME280;885;42.626;23.200;2022-08-14T04:07:42;169480.16;;;15.86;100.00
1776;BME280;885;42.626;23.200;2022-08-14T04:10:08;169496.78;;;15.93;100.00
1776;BME280;885;42.626;23.200;2022-08-14T04:12:35;169512.03;;;15.98;100.00
1776;BME280;885;42.626;23.200;2022-08-14T04:15:05;169491.25;;;15.90;100.00
1776;BME280;885;42.626;23.200;2022-08-14T04:17:31;169502.31;;;15.95;100.00
1776;BME280;885;42.626;23.200;2022-08-14T04:19:59;169520.31;;;16.01;100.00
1776;BME280;885;42.626;23.200;2022-08-14T04:22:28;169521.72;;;16.02;100.00
1776;BME280;885;42.626;23.200;2022-08-14T04:24:56;169499.56;;;15.94;100.00
1776;BME280;885;42.626;23.200;2022-08-14T04:30:12;169477.41;;;15.85;100.00
1776;BME280;885;42.626;23.200;2022-08-14T04:32:40;169482.97;;;15.87;100.00
1776;BME280;885;42.626;23.200;2022-08-14T04:35:07;169488.50;;;15.89;100.00
1776;BME280;885;42.626;23.200;2022-08-14T04:37:35;169510.63;;;15.98;100.00
1776;BME280;885;42.626;23.200;2022-08-14T04:40:19;169485.69;;;15.88;100.00
1776;BME280;885;42.626;23.200;2022-08-14T04:43:04;169500.91;;;15.94;100.00
1776;BME280;885;42.626;23.200;2022-08-14T04:45:50;169494.03;;;15.92;100.00
1776;BME280;885;42.626;23.200;2022-08-14T04:48:17;169517.56;;;16.00;100.00
1776;BME280;885;42.626;23.200;2022-08-14T04:50:48;169539.72;;;16.08;100.00
1776;BME280;885;42.626;23.200;2022-08-14T04:53:32;169559.06;;;16.15;100.00
1776;BME280;885;42.626;23.200;2022-08-14T04:56:00;169574.34;;;16.21;100.00
1776;BME280;885;42.626;23.200;2022-08-14T04:58:29;169528.66;;;16.04;100.00
1776;BME280;885;42.626;23.200;2022-08-14T05:00:58;169549.41;;;16.12;100.00
1776;BME280;885;42.626;23.200;2022-08-14T05:03:27;169535.53;;;16.07;100.00
1776;BME280;885;42.626;23.200;2022-08-14T05:05:59;169563.28;;;16.17;100.00
1776;BME280;885;42.626;23.200;2022-08-14T05:08:30;169568.81;;;16.19;100.00
1776;BME280;885;42.626;23.200;2022-08-14T05:10:59;169571.56;;;16.20;100.00
1776;BME280;885;42.626;23.200;2022-08-14T05:13:28;169516.19;;;16.00;100.00
1776;BME280;885;42.626;23.200;2022-08-14T05:15:58;169564.63;;;16.17;100.00
1776;BME280;885;42.626;23.200;2022-08-14T05:18:27;169589.56;;;16.26;100.00
1776;BME280;885;42.626;23.200;2022-08-14T05:20:57;169626.97;;;16.40;100.00
1776;BME280;885;42.626;23.200;2022-08-14T05:23:26;169657.47;;;16.51;100.00
1776;BME280;885;42.626;23.200;2022-08-14T05:25:54;169693.50;;;16.64;100.00
1776;BME280;885;42.626;23.200;2022-08-14T05:28:26;169710.13;;;16.70;100.00
1776;BME280;885;42.626;23.200;2022-08-14T05:30:54;169715.66;;;16.72;100.00
1776;BME280;885;42.626;23.200;2022-08-14T05:33:25;169710.13;;;16.70;100.00
1776;BME280;885;42.626;23.200;2022-08-14T05:35:54;169726.72;;;16.76;100.00
1776;BME280;885;42.626;23.200;2022-08-14T05:38:26;169726.72;;;16.76;100.00
1776;BME280;885;42.626;23.200;2022-08-14T05:40:54;169724.00;;;16.75;100.00
1776;BME280;885;42.626;23.200;2022-08-14T05:43:21;169737.81;;;16.80;100.00
1776;BME280;885;42.626;23.200;2022-08-14T05:45:48;169736.47;;;16.80;100.00
1776;BME280;885;42.626;23.200;2022-08-14T05:48:15;169721.19;;;16.74;100.00
1776;BME280;885;42.626;23.200;2022-08-14T05:50:43;169722.59;;;16.75;100.00
1776;BME280;885;42.626;23.200;2022-08-14T05:53:10;169705.97;;;16.68;100.00
1776;BME280;885;42.626;23.200;2022-08-14T05:55:37;169665.81;;;16.54;100.00
1776;BME280;885;42.626;23.200;2022-08-14T05:58:05;169687.97;;;16.62;100.00
1776;BME280;885;42.626;23.200;2022-08-14T06:00:34;169678.28;;;16.58;100.00
1776;BME280;885;42.626;23.200;2022-08-14T06:03:03;169710.13;;;16.70;100.00
1776;BME280;885;42.626;23.200;2022-08-14T06:05:34;169715.66;;;16.72;100.00
1776;BME280;885;42.626;23.200;2022-08-14T06:08:03;169683.81;;;16.60;100.00
1776;BME280;885;42.626;23.200;2022-08-14T06:10:30;169715.66;;;16.72;100.00
1776;BME280;885;42.626;23.200;2022-08-14T06:12:57;169717.06;;;16.73;100.00
1776;BME280;885;42.626;23.200;2022-08-14T06:15:26;169735.06;;;16.79;100.00
1776;BME280;885;42.626;23.200;2022-08-14T06:17:58;169712.91;;;16.71;100.00
1776;BME280;885;42.626;23.200;2022-08-14T06:20:25;169705.97;;;16.68;100.00
1776;BME280;885;42.626;23.200;2022-08-14T06:22:52;169686.56;;;16.61;100.00
1776;BME280;885;42.626;23.200;2022-08-14T06:25:20;169690.75;;;16.63;100.00
1776;BME280;885;42.626;23.200;2022-08-14T06:27:48;169590.97;;;16.27;100.00
1776;BME280;885;42.626;23.200;2022-08-14T06:30:16;169592.34;;;16.27;100.00
1776;BME280;885;42.626;23.200;2022-08-14T06:32:44;169603.44;;;16.31;100.00
1776;BME280;885;42.626;23.200;2022-08-14T06:35:12;169613.09;;;16.35;100.00
1776;BME280;885;42.626;23.200;2022-08-14T06:37:43;169618.66;;;16.37;100.00
1776;BME280;885;42.626;23.200;2022-08-14T06:40:12;169610.31;;;16.34;100.00
1776;BME280;885;42.626;23.200;2022-08-14T06:42:41;169610.31;;;16.34;100.00
1776;BME280;885;42.626;23.200;2022-08-14T06:45:08;169579.88;;;16.23;100.00
1776;BME280;885;42.626;23.200;2022-08-14T06:47:37;169614.50;;;16.35;100.00
1776;BME280;885;42.626;23.200;2022-08-14T06:50:06;169631.13;;;16.41;100.00
1776;BME280;885;42.626;23.200;2022-08-14T06:52:33;169658.88;;;16.51;100.00
1776;BME280;885;42.626;23.200;2022-08-14T06:55:00;169679.63;;;16.59;100.00
1776;BME280;885;42.626;23.200;2022-08-14T06:57:34;169699.03;;;16.66;100.00
1776;BME280;885;42.626;23.200;2022-08-14T07:00:05;169692.09;;;16.63;100.00
1776;BME280;885;42.626;23.200;2022-08-14T07:02:32;169681.03;;;16.59;100.00
1776;BME280;885;42.626;23.200;2022-08-14T07:05:16;169686.56;;;16.61;100.00
1776;BME280;885;42.626;23.200;2022-08-14T07:08:01;169707.38;;;16.69;100.00
1776;BME280;885;42.626;23.200;2022-08-14T07:10:28;169699.03;;;16.66;100.00
1776;BME280;885;42.626;23.200;2022-08-14T07:12:55;169671.34;;;16.56;100.00
1776;BME280;885;42.626;23.200;2022-08-14T07:15:23;169629.72;;;16.41;100.00
1776;BME280;885;42.626;23.200;2022-08-14T07:17:50;169660.25;;;16.52;100.00
1776;BME280;885;42.626;23.200;2022-08-14T07:20:17;169653.34;;;16.49;100.00
1776;BME280;885;42.626;23.200;2022-08-14T07:22:45;169668.53;;;16.55;100.00
1776;BME280;885;42.626;23.200;2022-08-14T07:25:12;169704.56;;;16.68;100.00
1776;BME280;885;42.626;23.200;2022-08-14T07:27:39;169732.28;;;16.78;100.00
1776;BME280;885;42.626;23.200;2022-08-14T07:30:07;169715.66;;;16.72;100.00
1776;BME280;885;42.626;23.200;2022-08-14T07:32:35;169730.94;;;16.78;100.00
1776;BME280;885;42.626;23.200;2022-08-14T07:35:05;169729.53;;;16.77;100.00
1776;BME280;885;42.626;23.200;2022-08-14T07:37:32;169739.22;;;16.81;100.00
1776;BME280;885;42.626;23.200;2022-08-14T07:40:00;169737.81;;;16.80;100.00
1776;BME280;885;42.626;23.200;2022-08-14T07:42:38;169758.63;;;16.88;100.00
1776;BME280;885;42.626;23.200;2022-08-14T07:45:06;169782.19;;;16.96;100.00
1776;BME280;885;42.626;23.200;2022-08-14T07:47:32;169832.06;;;17.14;100.00
1776;BME280;885;42.626;23.200;2022-08-14T07:50:11;169868.09;;;17.27;100.00
1776;BME280;885;42.626;23.200;2022-08-14T07:52:39;169906.88;;;17.41;100.00
1776;BME280;885;42.626;23.200;2022-08-14T07:55:10;169947.13;;;17.56;100.00
1776;BME280;885;42.626;23.200;2022-08-14T07:57:43;169984.59;;;17.70;100.00
1776;BME280;885;42.626;23.200;2022-08-14T08:00:12;170002.56;;;17.76;100.00
1776;BME280;885;42.626;23.200;2022-08-14T08:02:42;170009.50;;;17.79;100.00
1776;BME280;885;42.626;23.200;2022-08-14T08:05:12;170012.31;;;17.80;100.00
1776;BME280;885;42.626;23.200;2022-08-14T08:07:40;169974.84;;;17.66;100.00
1776;BME280;885;42.626;23.200;2022-08-14T08:10:10;169934.66;;;17.52;100.00
1776;BME280;885;42.626;23.200;2022-08-14T08:12:55;169941.59;;;17.54;100.00
1776;BME280;885;42.626;23.200;2022-08-14T08:15:23;169972.09;;;17.65;100.00
1776;BME280;885;42.626;23.200;2022-08-14T08:17:50;169963.75;;;17.62;100.00
1776;BME280;885;42.626;23.200;2022-08-14T08:20:21;169929.13;;;17.50;100.00
1776;BME280;885;42.626;23.200;2022-08-14T08:22:50;169954.06;;;17.59;100.00
1776;BME280;885;42.626;23.200;2022-08-14T08:25:17;169976.25;;;17.67;100.00
1776;BME280;885;42.626;23.200;2022-08-14T08:27:54;169994.28;;;17.73;100.00
1776;BME280;885;42.626;23.200;2022-08-14T08:30:21;170031.69;;;17.87;100.00
1776;BME280;885;42.626;23.200;2022-08-14T08:32:50;170034.47;;;17.88;100.00
1776;BME280;885;42.626;23.200;2022-08-14T08:35:20;170049.72;;;17.93;100.00
1776;BME280;885;42.626;23.200;2022-08-14T08:37:48;170070.56;;;18.01;100.00
1776;BME280;885;42.626;23.200;2022-08-14T08:40:22;170074.69;;;18.02;100.00
1776;BME280;885;42.626;23.200;2022-08-14T08:42:50;170096.88;;;18.10;100.00
1776;BME280;885;42.626;23.200;2022-08-14T08:45:17;170117.69;;;18.18;100.00
1776;BME280;885;42.626;23.200;2022-08-14T08:47:44;170144.03;;;18.27;100.00
1776;BME280;885;42.626;23.200;2022-08-14T08:50:21;170175.91;;;18.39;100.00
1776;BME280;885;42.626;23.200;2022-08-14T08:52:53;170209.28;;;18.51;100.00
1776;BME280;885;42.626;23.200;2022-08-14T08:55:25;170231.47;;;18.59;100.00
1776;BME280;885;42.626;23.200;2022-08-14T08:57:56;170157.91;;;18.33;100.00
1776;BME280;885;42.626;23.200;2022-08-14T09:00:24;170107.97;;;18.14;100.00
1776;BME280;885;42.626;23.200;2022-08-14T09:02:54;170159.28;;;18.33;100.00
1776;BME280;885;42.626;23.200;2022-08-14T09:05:23;170106.56;;;18.14;100.00
1776;BME280;885;42.626;23.200;2022-08-14T09:07:50;170037.22;;;17.89;100.00
1776;BME280;885;42.626;23.200;2022-08-14T09:10:17;170112.09;;;18.16;100.00
1776;BME280;885;42.626;23.200;2022-08-14T09:12:45;170142.63;;;18.27;100.00
1776;BME280;885;42.626;23.200;2022-08-14T09:15:12;170159.28;;;18.33;100.00
1776;BME280;885;42.626;23.200;2022-08-14T09:17:41;170052.50;;;17.94;100.00
1776;BME280;885;42.626;23.200;2022-08-14T09:20:08;170056.66;;;17.96;100.00
1776;BME280;885;42.626;23.200;2022-08-14T09:22:37;170059.47;;;17.97;100.00
1776;BME280;885;42.626;23.200;2022-08-14T09:25:07;170102.41;;;18.12;100.00
1776;BME280;885;42.626;23.200;2022-08-14T09:27:35;170145.44;;;18.28;100.00
1776;BME280;885;42.626;23.200;2022-08-14T09:30:04;170191.25;;;18.45;100.00
1776;BME280;885;42.626;23.200;2022-08-14T09:32:40;170250.84;;;18.66;100.00
1776;BME280;885;42.626;23.200;2022-08-14T09:35:16;170321.63;;;18.92;100.00
1776;BME280;885;42.626;23.200;2022-08-14T09:37:54;170436.84;;;19.34;100.00
1776;BME280;885;42.626;23.200;2022-08-14T09:40:36;170556.25;;;19.77;100.00
1776;BME280;885;42.626;23.200;2022-08-14T09:43:13;170703.47;;;20.30;100.00
1776;BME280;885;42.626;23.200;2022-08-14T09:45:47;170845.16;;;20.82;100.00
1776;BME280;885;42.626;23.200;2022-08-14T09:48:15;170935.50;;;21.14;100.00
1776;BME280;885;42.626;23.200;2022-08-14T09:50:47;170911.88;;;21.06;100.00
1776;BME280;885;42.626;23.200;2022-08-14T09:53:28;170924.41;;;21.10;100.00
1776;BME280;885;42.626;23.200;2022-08-14T09:55:57;170936.91;;;21.15;100.00
1776;BME280;885;42.626;23.200;2022-08-14T09:58:35;170917.44;;;21.08;100.00
1776;BME280;885;42.626;23.200;2022-08-14T10:01:07;170889.59;;;20.98;100.00
1776;BME280;885;42.626;23.200;2022-08-14T10:03:36;170917.44;;;21.08;100.00
1776;BME280;885;42.626;23.200;2022-08-14T10:06:05;170925.81;;;21.11;100.00
1776;BME280;885;42.626;23.200;2022-08-14T10:08:42;171055.00;;;21.58;100.00
1776;BME280;885;42.626;23.200;2022-08-14T10:11:14;171131.53;;;21.85;100.00
1776;BME280;885;42.626;23.200;2022-08-14T10:13:42;171141.25;;;21.89;100.00
1776;BME280;885;42.626;23.200;2022-08-14T10:16:09;171191.31;;;22.07;99.75
1776;BME280;885;42.626;23.200;2022-08-14T10:18:36;171226.06;;;22.20;96.31
1776;BME280;885;42.626;23.200;2022-08-14T10:21:07;171162.13;;;21.96;95.11
1776;BME280;885;42.626;23.200;2022-08-14T10:23:41;171134.31;;;21.86;96.05
1776;BME280;885;42.626;23.200;2022-08-14T10:26:15;171067.53;;;21.62;99.40
1776;BME280;885;42.626;23.200;2022-08-14T10:28:46;171038.34;;;21.52;98.99
1776;BME280;885;42.626;23.200;2022-08-14T10:31:19;170985.50;;;21.32;100.00
1776;BME280;885;42.626;23.200;2022-08-14T10:33:57;171006.41;;;21.40;100.00
1776;BME280;885;42.626;23.200;2022-08-14T10:36:29;171080.03;;;21.67;100.00
1776;BME280;885;42.626;23.200;2022-08-14T10:39:00;171237.19;;;22.24;98.84
1776;BME280;885;42.626;23.200;2022-08-14T10:41:38;171355.44;;;22.66;96.59
1776;BME280;885;42.626;23.200;2022-08-14T10:44:08;171443.06;;;22.98;95.62
1776;BME280;885;42.626;23.200;2022-08-14T10:46:40;171420.81;;;22.90;92.36
1776;BME280;885;42.626;23.200;2022-08-14T10:49:16;171362.38;;;22.69;92.66
1776;BME280;885;42.626;23.200;2022-08-14T10:51:54;171290.06;;;22.43;95.05
1776;BME280;885;42.626;23.200;2022-08-14T10:54:31;171242.75;;;22.26;96.34
1776;BME280;885;42.626;23.200;2022-08-14T10:57:10;171181.59;;;22.03;94.46
1776;BME280;885;42.626;23.200;2022-08-14T10:59:41;171125.97;;;21.83;94.44
1776;BME280;885;42.626;23.200;2022-08-14T11:02:22;171059.22;;;21.59;95.14
1776;BME280;885;42.626;23.200;2022-08-14T11:05:01;171017.50;;;21.44;97.04
1776;BME280;885;42.626;23.200;2022-08-14T11:07:30;171018.91;;;21.45;99.10
1776;BME280;885;42.626;23.200;2022-08-14T11:10:00;171024.47;;;21.47;97.10
1776;BME280;885;42.626;23.200;2022-08-14T11:12:39;171077.28;;;21.66;97.16
1776;BME280;885;42.626;23.200;2022-08-14T11:15:07;171192.72;;;22.07;97.13
1776;BME280;885;42.626;23.200;2022-08-14T11:17:34;171214.97;;;22.16;94.09
1776;BME280;885;42.626;23.200;2022-08-14T11:20:03;171295.59;;;22.45;94.38
1776;BME280;885;42.626;23.200;2022-08-14T11:22:31;171342.94;;;22.62;89.66
1776;BME280;885;42.626;23.200;2022-08-14T11:25:02;171426.38;;;22.92;91.14
1776;BME280;885;42.626;23.200;2022-08-14T11:27:30;171457.00;;;23.03;88.90
1776;BME280;885;42.626;23.200;2022-08-14T11:30:00;171340.16;;;22.61;89.06
1776;BME280;885;42.626;23.200;2022-08-14T11:32:27;171281.69;;;22.40;88.94
1776;BME280;885;42.626;23.200;2022-08-14T11:34:55;171224.69;;;22.19;92.20
1776;BME280;885;42.626;23.200;2022-08-14T11:37:22;171151.00;;;21.92;92.07
1776;BME280;885;42.626;23.200;2022-08-14T11:39:49;171124.56;;;21.83;92.51
1776;BME280;885;42.626;23.200;2022-08-14T11:42:22;171045.28;;;21.54;94.78
1776;BME280;885;42.626;23.200;2022-08-14T11:44:49;170956.34;;;21.22;95.68
1776;BME280;885;42.626;23.200;2022-08-14T11:47:17;170897.97;;;21.01;98.77
1776;BME280;885;42.626;23.200;2022-08-14T11:49:45;170881.25;;;20.95;98.62
1776;BME280;885;42.626;23.200;2022-08-14T11:52:13;170853.47;;;20.85;99.44
1776;BME280;885;42.626;23.200;2022-08-14T11:54:40;170825.69;;;20.75;98.77
1776;BME280;885;42.626;23.200;2022-08-14T11:57:12;170827.09;;;20.75;98.58
1776;BME280;885;42.626;23.200;2022-08-14T11:59:41;170807.63;;;20.68;100.00
1776;BME280;885;42.626;23.200;2022-08-14T12:02:12;170859.03;;;20.87;100.00
1776;BME280;885;42.626;23.200;2022-08-14T12:04:47;170897.97;;;21.01;99.77
1776;BME280;885;42.626;23.200;2022-08-14T12:07:15;170902.19;;;21.02;100.00
1776;BME280;885;42.626;23.200;2022-08-14T12:09:43;170929.97;;;21.12;99.81
1776;BME280;885;42.626;23.200;2022-08-14T12:12:14;170961.88;;;21.24;100.00
1776;BME280;885;42.626;23.200;2022-08-14T12:14:49;170995.28;;;21.36;100.00
1776;BME280;885;42.626;23.200;2022-08-14T12:17:18;171021.66;;;21.46;100.00
1776;BME280;885;42.626;23.200;2022-08-14T12:19:47;170993.88;;;21.35;94.92
1776;BME280;885;42.626;23.200;2022-08-14T12:22:14;171018.91;;;21.45;95.06
1776;BME280;885;42.626;23.200;2022-08-14T12:24:41;171056.41;;;21.58;93.76
1776;BME280;885;42.626;23.200;2022-08-14T12:27:09;171130.13;;;21.85;94.25
1776;BME280;885;42.626;23.200;2022-08-14T12:29:37;171269.16;;;22.35;93.89
1776;BME280;885;42.626;23.200;2022-08-14T12:32:08;171457.00;;;23.03;90.14
1776;BME280;885;42.626;23.200;2022-08-14T12:34:35;171536.28;;;23.32;86.38
1776;BME280;885;42.626;23.200;2022-08-14T12:37:05;171598.94;;;23.54;82.40
1776;BME280;885;42.626;23.200;2022-08-14T12:39:33;171633.75;;;23.67;82.15
1776;BME280;885;42.626;23.200;2022-08-14T12:42:00;171710.31;;;23.95;81.73
1776;BME280;885;42.626;23.200;2022-08-14T12:44:33;171846.81;;;24.44;82.09
1776;BME280;885;42.626;23.200;2022-08-14T12:47:08;171968.03;;;24.88;79.17
1776;BME280;885;42.626;23.200;2022-08-14T12:49:37;172085.03;;;25.30;79.12
1776;BME280;885;42.626;23.200;2022-08-14T12:52:04;172170.06;;;25.61;69.67
1776;BME280;885;42.626;23.200;2022-08-14T12:54:32;172203.50;;;25.73;68.83
1776;BME280;885;42.626;23.200;2022-08-14T12:57:07;172186.78;;;25.67;67.38
1776;BME280;885;42.626;23.200;2022-08-14T12:59:35;172139.41;;;25.50;67.29
1776;BME280;885;42.626;23.200;2022-08-14T13:02:02;172052.97;;;25.18;68.01
1776;BME280;885;42.626;23.200;2022-08-14T13:04:31;171969.44;;;24.88;69.75
1776;BME280;885;42.626;23.200;2022-08-14T13:07:04;171869.09;;;24.52;69.78
1776;BME280;885;42.626;23.200;2022-08-14T13:09:53;171779.97;;;24.20;70.39
1776;BME280;885;42.626;23.200;2022-08-14T13:12:22;171679.72;;;23.84;70.75
1776;BME280;885;42.626;23.200;2022-08-14T13:14:55;171626.81;;;23.64;73.87
1776;BME280;885;42.626;23.200;2022-08-14T13:17:23;171589.22;;;23.51;74.17
1776;BME280;885;42.626;23.200;2022-08-14T13:19:54;171495.94;;;23.17;76.23
1776;BME280;885;42.626;23.200;2022-08-14T13:22:22;171437.50;;;22.96;76.58